Terminal Aerodrome Forecast
Issued by NWS

Home | Current Version | Previous Version | Text Only | Print | Product List | Glossary On
Versions: 1 2 3 4 5 6 7 8 9 10 11 12 13 14
000
FTUS45 KTFX 051136
TAFGTF
TAF
KGTF 051136Z 0512/0612 20008KT P6SM SCT110 BKN150
     FM052200 25011KT P6SM SCT070 BKN100 PROB30 0600/0604 VRB20G30KT
      -TSRA BKN050CB
     FM060400 32010KT P6SM SCT040 BKN080=

USA.gov is the U.S. government's official web portal to all federal, state and local government web resources and services.